createdAt,value
2018-04-19T00:00:06.116Z,16.17
2018-04-19T00:00:46.464Z,16.11
2018-04-19T00:01:26.868Z,16.08
2018-04-19T00:02:07.246Z,16.1
2018-04-19T00:02:47.648Z,16.1
2018-04-19T00:03:28.040Z,16.1
2018-04-19T00:04:08.413Z,16.1
2018-04-19T00:04:48.850Z,16.07
2018-04-19T00:05:29.272Z,16.11
2018-04-19T00:06:09.655Z,16.11
2018-04-19T00:06:50.049Z,16.1
2018-04-19T00:07:30.430Z,16.13
2018-04-19T00:08:10.834Z,16.07
2018-04-19T00:08:51.316Z,16.16
2018-04-19T00:09:31.643Z,16.06
2018-04-19T00:10:12.068Z,16.1
2018-04-19T00:10:52.488Z,16.08
2018-04-19T00:11:32.847Z,16.13
2018-04-19T00:12:13.247Z,16.07
2018-04-19T00:12:53.708Z,16.08
2018-04-19T00:13:34.073Z,16.06
2018-04-19T00:14:14.453Z,16.04
2018-04-19T00:14:54.847Z,16.06
2018-04-19T00:15:35.333Z,16.07
2018-04-19T00:16:15.616Z,16.01
2018-04-19T00:16:56.057Z,16.07
2018-04-19T00:17:36.490Z,16.03
2018-04-19T00:18:16.820Z,15.99
2018-04-19T00:18:57.182Z,16.06
2018-04-19T00:19:37.645Z,16.01
2018-04-19T00:20:18.102Z,16.01
2018-04-19T00:20:58.408Z,15.95
2018-04-19T00:21:38.793Z,16.03
2018-04-19T00:22:19.203Z,15.92
2018-04-19T00:22:59.649Z,15.96
2018-04-19T00:23:39.995Z,15.92
2018-04-19T00:24:20.356Z,15.91
2018-04-19T00:25:00.775Z,15.89
2018-04-19T00:25:41.154Z,15.95
2018-04-19T00:26:21.621Z,15.98
2018-04-19T00:27:01.968Z,15.93
2018-04-19T00:27:42.431Z,15.92
2018-04-19T00:28:22.745Z,15.81
2018-04-19T00:29:03.160Z,15.89
2018-04-19T00:29:43.649Z,15.81
2018-04-19T00:30:24.061Z,15.85
2018-04-19T00:31:04.443Z,15.8
2018-04-19T00:31:44.894Z,15.84
2018-04-19T00:32:25.323Z,15.8
2018-04-19T00:33:05.641Z,15.86
2018-04-19T00:33:46.110Z,15.85
2018-04-19T00:34:26.477Z,15.8
2018-04-19T00:35:06.827Z,15.85
2018-04-19T00:35:47.217Z,15.86
2018-04-19T00:36:27.688Z,15.8
2018-04-19T00:37:08.066Z,15.68
2018-04-19T00:37:48.406Z,15.76
2018-04-19T00:38:28.883Z,15.7
2018-04-19T00:39:09.317Z,15.73
2018-04-19T00:39:49.638Z,15.76
2018-04-19T00:40:30.088Z,15.74
2018-04-19T00:41:10.539Z,15.7
2018-04-19T00:41:50.852Z,15.68
2018-04-19T00:42:31.302Z,15.74
2018-04-19T00:43:11.716Z,15.67
2018-04-19T00:43:52.071Z,15.74
2018-04-19T00:44:32.565Z,15.7
2018-04-19T00:45:13.011Z,15.68
2018-04-19T00:45:53.284Z,15.71
2018-04-19T00:46:33.709Z,15.71
2018-04-19T00:47:14.113Z,15.73
2018-04-19T00:47:54.555Z,15.71
2018-04-19T00:48:34.900Z,15.71
2018-04-19T00:49:15.326Z,15.68
2018-04-19T00:49:55.723Z,15.74
2018-04-19T00:50:36.109Z,15.74
2018-04-19T00:51:16.558Z,15.77
2018-04-19T00:51:56.979Z,15.71
2018-04-19T00:52:37.447Z,15.67
2018-04-19T00:53:17.756Z,15.73
2018-04-19T00:53:58.142Z,15.68
2018-04-19T00:54:38.608Z,15.74
2018-04-19T00:55:18.966Z,15.77
2018-04-19T00:55:59.320Z,15.76
2018-04-19T00:56:39.724Z,15.73
2018-04-19T00:57:20.114Z,15.74
2018-04-19T00:58:00.617Z,15.7
2018-04-19T00:58:40.983Z,15.71
2018-04-19T00:59:21.340Z,15.74
2018-04-19T01:00:01.753Z,15.74
2018-04-19T01:00:42.191Z,15.66
2018-04-19T01:01:22.561Z,15.66
2018-04-19T01:02:02.961Z,15.66
2018-04-19T01:02:43.447Z,15.66
2018-04-19T01:03:23.857Z,15.6
2018-04-19T01:04:04.327Z,15.64
2018-04-19T01:04:44.633Z,15.58
2018-04-19T01:05:25.036Z,15.48
2018-04-19T01:06:05.526Z,15.51
2018-04-19T01:06:45.920Z,15.58
2018-04-19T01:07:26.309Z,15.44
2018-04-19T01:08:06.787Z,15.35
2018-04-19T01:08:47.155Z,15.34
2018-04-19T01:09:27.557Z,15.34
2018-04-19T01:10:08.098Z,15.34
2018-04-19T01:10:48.520Z,15.44
2018-04-19T01:11:28.903Z,15.34
2018-04-19T01:12:09.329Z,15.37
2018-04-19T01:12:49.782Z,15.34
2018-04-19T01:13:30.214Z,15.34
2018-04-19T01:14:10.580Z,15.25
2018-04-19T01:14:51.006Z,15.28
2018-04-19T01:15:31.567Z,15.23
2018-04-19T01:16:11.861Z,15.23
2018-04-19T01:16:52.346Z,15.2
2018-04-19T01:17:32.704Z,15.23
2018-04-19T01:18:13.078Z,15.15
2018-04-19T01:18:53.515Z,15.22
2018-04-19T01:19:33.913Z,15.2
2018-04-19T01:20:14.250Z,15.27
2018-04-19T01:20:54.671Z,15.19
2018-04-19T01:21:35.009Z,15.3
2018-04-19T01:22:15.433Z,15.27
2018-04-19T01:22:55.859Z,15.22
2018-04-19T01:23:36.205Z,15.22
2018-04-19T01:24:16.584Z,15.16
2018-04-19T01:24:57.025Z,15.2
2018-04-19T01:25:37.397Z,15.31
2018-04-19T01:26:17.749Z,15.2
2018-04-19T01:26:58.167Z,15.2
2018-04-19T01:27:38.644Z,15.3
2018-04-19T01:28:18.970Z,15.27
2018-04-19T01:28:59.452Z,15.33
2018-04-19T01:29:39.826Z,15.31
2018-04-19T01:30:20.199Z,15.28
2018-04-19T01:31:00.595Z,15.31
2018-04-19T01:31:40.961Z,15.34
2018-04-19T01:32:21.412Z,15.3
2018-04-19T01:33:01.813Z,15.33
2018-04-19T01:33:42.193Z,15.3
2018-04-19T01:34:22.572Z,15.34
2018-04-19T01:35:02.982Z,15.4
2018-04-19T01:35:43.407Z,15.34
2018-04-19T01:36:23.765Z,15.28
2018-04-19T01:37:04.202Z,15.25
2018-04-19T01:37:44.549Z,15.34
2018-04-19T01:39:31.849Z,15.33
2018-04-19T01:40:12.301Z,15.28
2018-04-19T01:40:52.645Z,15.31
2018-04-19T01:41:33.048Z,15.31
2018-04-19T01:42:13.393Z,15.37
2018-04-19T01:42:53.831Z,15.31
2018-04-19T01:43:34.188Z,15.35
2018-04-19T01:44:14.688Z,15.27
2018-04-19T01:44:55.027Z,15.28
2018-04-19T01:45:35.405Z,15.25
2018-04-19T01:46:15.817Z,15.19
2018-04-19T01:46:56.147Z,15.22
2018-04-19T01:47:36.541Z,15.27
2018-04-19T01:48:17.002Z,15.28
2018-04-19T01:48:57.425Z,15.23
2018-04-19T01:49:37.763Z,15.23
2018-04-19T01:50:18.204Z,15.15
2018-04-19T01:50:58.610Z,15.15
2018-04-19T01:51:39.088Z,15.18
2018-04-19T01:52:19.408Z,15.19
2018-04-19T01:52:59.788Z,15.15
2018-04-19T01:53:40.293Z,15.15
2018-04-19T01:54:20.614Z,15.19
2018-04-19T01:55:00.965Z,15.13
2018-04-19T01:55:41.322Z,15
2018-04-19T01:56:21.685Z,15.03
2018-04-19T01:57:02.098Z,15.03
2018-04-19T01:57:42.499Z,15.15
2018-04-19T01:58:22.887Z,15.04
2018-04-19T01:59:03.262Z,14.98
2018-04-19T01:59:43.668Z,14.98
2018-04-19T02:00:24.049Z,14.97
2018-04-19T02:01:04.458Z,15.01
2018-04-19T02:01:44.817Z,15.04
2018-04-19T02:02:25.250Z,15
2018-04-19T02:04:22.706Z,14.98
2018-04-19T02:05:02.986Z,14.98
2018-04-19T02:05:43.363Z,15.01
2018-04-19T02:06:23.845Z,14.97
2018-04-19T02:07:04.192Z,15.01
2018-04-19T02:07:44.602Z,14.97
2018-04-19T02:08:24.961Z,15.04
2018-04-19T02:09:05.385Z,14.94
2018-04-19T02:09:45.845Z,14.91
2018-04-19T02:10:26.196Z,14.9
2018-04-19T02:11:06.613Z,15.01
2018-04-19T02:11:47.080Z,14.97
2018-04-19T02:12:27.394Z,14.94
2018-04-19T02:13:07.833Z,14.86
2018-04-19T02:13:48.223Z,14.9
2018-04-19T02:14:28.651Z,14.87
2018-04-19T02:15:09.068Z,14.97
2018-04-19T02:15:49.473Z,14.9
2018-04-19T02:16:29.905Z,14.87
2018-04-19T02:17:10.260Z,14.91
2018-04-19T02:17:50.696Z,14.79
2018-04-19T02:18:31.053Z,14.91
2018-04-19T02:19:11.532Z,14.82
2018-04-19T02:19:51.883Z,14.83
2018-04-19T02:20:32.287Z,14.85
2018-04-19T02:21:12.619Z,14.8
2018-04-19T02:21:53.029Z,14.83
2018-04-19T02:22:33.382Z,14.85
2018-04-19T02:23:13.788Z,14.79
2018-04-19T02:23:54.174Z,14.78
2018-04-19T02:24:34.615Z,14.85
2018-04-19T02:25:15.004Z,14.82
2018-04-19T02:25:55.387Z,14.78
2018-04-19T02:26:35.827Z,14.83
2018-04-19T02:27:16.210Z,14.83
2018-04-19T02:27:56.581Z,14.86
2018-04-19T02:28:37.055Z,14.83
2018-04-19T02:29:17.463Z,14.85
2018-04-19T02:29:57.870Z,14.85
2018-04-19T02:30:38.223Z,14.82
2018-04-19T02:31:18.609Z,14.86
2018-04-19T02:31:59.018Z,14.8
2018-04-19T02:32:39.422Z,14.74
2018-04-19T02:33:19.905Z,14.69
2018-04-19T02:34:00.259Z,14.86
2018-04-19T02:34:40.652Z,14.78
2018-04-19T02:35:21.103Z,14.74
2018-04-19T02:36:01.422Z,14.72
2018-04-19T02:36:41.860Z,14.75
2018-04-19T02:37:22.348Z,14.74
2018-04-19T02:38:02.663Z,14.72
2018-04-19T02:38:43.128Z,14.75
2018-04-19T02:39:23.482Z,14.74
2018-04-19T02:40:04.001Z,14.71
2018-04-19T02:40:44.406Z,14.74
2018-04-19T02:41:24.811Z,14.75
2018-04-19T02:42:05.304Z,14.79
2018-04-19T02:42:45.626Z,14.71
2018-04-19T02:43:26.014Z,14.72
2018-04-19T02:44:06.368Z,14.71
2018-04-19T02:44:46.795Z,14.72
2018-04-19T02:45:27.202Z,14.67
2018-04-19T02:46:07.651Z,14.72
2018-04-19T02:46:48.040Z,14.66
2018-04-19T02:47:28.411Z,14.63
2018-04-19T02:48:08.870Z,14.64
2018-04-19T02:48:49.226Z,14.64
2018-04-19T02:49:29.552Z,14.63
2018-04-19T02:50:09.941Z,14.69
2018-04-19T02:50:50.342Z,14.64
2018-04-19T02:51:30.773Z,14.61
2018-04-19T02:53:24.198Z,14.66
2018-04-19T02:54:04.544Z,14.59
2018-04-19T02:54:44.973Z,14.48
2018-04-19T02:55:25.381Z,14.39
2018-04-19T02:56:05.765Z,14.45
2018-04-19T02:56:46.194Z,14.36
2018-04-19T02:57:26.574Z,14.44
2018-04-19T02:58:06.966Z,14.44
2018-04-19T02:58:47.355Z,14.54
2018-04-19T02:59:27.824Z,14.44
2018-04-19T03:00:08.222Z,14.38
2018-04-19T03:00:48.612Z,14.36
2018-04-19T03:01:29.029Z,14.35
2018-04-19T03:02:09.397Z,14.29
2018-04-19T03:02:49.831Z,14.27
2018-04-19T03:03:30.218Z,14.34
2018-04-19T03:04:10.715Z,14.23
2018-04-19T03:04:51.021Z,14.27
2018-04-19T03:05:31.466Z,14.3
2018-04-19T03:06:11.891Z,14.26
2018-04-19T03:06:52.262Z,14.3
2018-04-19T03:07:32.675Z,14.31
2018-04-19T03:08:13.052Z,14.35
2018-04-19T03:08:53.470Z,14.3
2018-04-19T03:09:33.892Z,14.35
2018-04-19T03:10:14.345Z,14.38
2018-04-19T03:10:54.721Z,14.34
2018-04-19T03:11:35.116Z,14.35
2018-04-19T03:12:15.560Z,14.27
2018-04-19T03:12:55.989Z,14.23
2018-04-19T03:13:36.350Z,14.24
2018-04-19T03:14:16.760Z,14.29
2018-04-19T03:14:57.170Z,14.21
2018-04-19T03:15:37.639Z,14.27
2018-04-19T03:16:18.011Z,14.27
2018-04-19T03:16:58.444Z,14.24
2018-04-19T03:17:38.852Z,14.19
2018-04-19T03:18:19.305Z,14.23
2018-04-19T03:18:59.697Z,14.26
2018-04-19T03:19:40.007Z,14.26
2018-04-19T03:20:20.671Z,14.26
2018-04-19T03:21:00.869Z,14.27
2018-04-19T03:21:41.264Z,14.2
2018-04-19T03:22:21.681Z,14.31
2018-04-19T03:23:02.083Z,14.23
2018-04-19T03:23:42.391Z,14.29
2018-04-19T03:24:22.832Z,14.3
2018-04-19T03:25:03.227Z,14.35
2018-04-19T03:25:43.829Z,14.36
2018-04-19T03:26:24.088Z,14.45
2018-04-19T03:27:04.431Z,14.48
2018-04-19T03:27:44.882Z,14.42
2018-04-19T03:28:25.300Z,14.53
2018-04-19T03:29:05.627Z,14.48
2018-04-19T03:29:46.039Z,14.52
2018-04-19T03:30:26.501Z,14.53
2018-04-19T03:31:06.885Z,14.53
2018-04-19T03:31:47.412Z,14.44
2018-04-19T03:32:27.797Z,14.45
2018-04-19T03:33:08.070Z,14.41
2018-04-19T03:33:48.544Z,14.27
2018-04-19T03:34:28.932Z,14.29
2018-04-19T03:35:09.446Z,14.42
2018-04-19T03:35:49.786Z,14.34
2018-04-19T03:36:30.128Z,14.36
2018-04-19T03:37:10.715Z,14.44
2018-04-19T03:37:51.039Z,14.41
2018-04-19T03:38:31.413Z,14.45
2018-04-19T03:39:11.941Z,14.45
2018-04-19T03:39:52.230Z,14.41
2018-04-19T03:40:32.680Z,14.44
2018-04-19T03:41:13.033Z,14.44
2018-04-19T03:41:53.348Z,14.56
2018-04-19T03:42:33.780Z,14.56
2018-04-19T03:43:14.370Z,14.6
2018-04-19T03:43:54.612Z,14.59
2018-04-19T03:44:34.978Z,14.57
2018-04-19T03:45:15.396Z,14.63
2018-04-19T03:45:55.835Z,14.56
2018-04-19T03:46:36.290Z,14.59
2018-04-19T03:47:16.644Z,14.69
2018-04-19T03:47:57.044Z,14.63
2018-04-19T03:48:37.564Z,14.67
2018-04-19T03:49:17.906Z,14.64
2018-04-19T03:49:58.327Z,14.63
2018-04-19T03:50:38.840Z,14.63
2018-04-19T03:51:19.217Z,14.63
2018-04-19T03:51:59.633Z,14.61
2018-04-19T03:52:40.107Z,14.66
2018-04-19T03:53:20.449Z,14.61
2018-04-19T03:54:00.777Z,14.61
2018-04-19T03:54:41.276Z,14.57
2018-04-19T03:55:21.690Z,14.6
2018-04-19T03:56:02.101Z,14.56
2018-04-19T03:56:42.600Z,14.52
2018-04-19T03:57:22.925Z,14.61
2018-04-19T03:58:03.334Z,14.57
2018-04-19T03:58:43.937Z,14.53
2018-04-19T03:59:24.333Z,14.41
2018-04-19T04:00:04.628Z,14.53
2018-04-19T04:00:45.064Z,14.41
2018-04-19T04:01:25.490Z,14.44
2018-04-19T04:02:05.982Z,14.46
2018-04-19T04:02:46.406Z,14.53
2018-04-19T04:40:57.092Z,13.03
2018-04-19T04:41:37.444Z,12.95
2018-04-19T04:42:17.750Z,12.98
2018-04-19T04:42:58.173Z,12.96
2018-04-19T04:43:38.625Z,13.01
2018-04-19T04:44:19.084Z,12.99
2018-04-19T04:44:59.502Z,13.03
2018-04-19T04:45:39.894Z,13.01
2018-04-19T04:46:20.321Z,13.1
2018-04-19T04:47:00.665Z,13.1
2018-04-19T04:47:41.148Z,13.14
2018-04-19T04:48:21.493Z,13.31
2018-04-19T04:49:02.025Z,13.24
2018-04-19T04:49:42.473Z,13.32
2018-04-19T04:50:22.786Z,13.44
2018-04-19T04:51:03.252Z,13.51
2018-04-19T04:51:43.664Z,13.62
2018-04-19T04:52:24.031Z,13.69
2018-04-19T04:53:04.371Z,13.81
2018-04-19T04:53:44.949Z,13.9
2018-04-19T04:54:25.249Z,13.99
2018-04-19T04:55:05.671Z,14.11
2018-04-19T04:55:46.106Z,14.16
2018-04-19T04:56:26.401Z,14.34
2018-04-19T04:57:06.939Z,14.34
2018-04-19T04:57:47.423Z,14.56
2018-04-19T04:58:27.750Z,14.64
2018-04-19T04:59:08.231Z,14.72
2018-04-19T04:59:48.591Z,14.72
2018-04-19T05:00:29.056Z,14.91
2018-04-19T05:01:09.440Z,14.95
2018-04-19T05:01:49.938Z,15.13
2018-04-19T05:02:30.302Z,15.28
2018-04-19T05:03:10.702Z,15.38
2018-04-19T05:03:51.096Z,15.56
2018-04-19T05:04:31.531Z,15.73
2018-04-19T05:05:11.869Z,15.85
2018-04-19T05:05:52.285Z,16.06
2018-04-19T05:06:32.684Z,16.08
2018-04-19T05:07:13.080Z,16.26
2018-04-19T05:07:53.563Z,16.45
2018-04-19T05:08:33.857Z,16.54
2018-04-19T05:09:14.301Z,16.6
2018-04-19T05:09:54.665Z,16.73
2018-04-19T05:10:35.055Z,16.82
2018-04-19T05:11:15.455Z,16.91
2018-04-19T05:11:55.882Z,17
2018-04-19T05:12:36.257Z,17.15
2018-04-19T05:13:16.675Z,17.25
2018-04-19T05:13:57.061Z,17.28
2018-04-19T05:14:37.443Z,17.4
2018-04-19T05:15:17.900Z,17.58
2018-04-19T05:15:58.274Z,17.66
2018-04-19T05:16:38.765Z,17.63
2018-04-19T05:17:19.200Z,17.8
2018-04-19T05:17:59.522Z,17.87
2018-04-19T05:18:40.074Z,18.07
2018-04-19T05:19:20.536Z,18.17
2018-04-19T05:20:00.887Z,18.28
2018-04-19T05:20:41.279Z,18.39
2018-04-19T05:21:21.712Z,18.6
2018-04-19T05:22:02.117Z,18.82
2018-04-19T05:22:42.544Z,19.01
2018-04-19T05:23:22.899Z,19.01
2018-04-19T05:24:03.304Z,19.31
2018-04-19T05:24:43.730Z,19.52
2018-04-19T05:25:24.140Z,19.61
2018-04-19T05:26:04.535Z,19.72
2018-04-19T05:26:44.950Z,19.82
2018-04-19T05:27:25.804Z,20.04
2018-04-19T05:28:06.115Z,20.16
2018-04-19T05:28:46.549Z,20.25
2018-04-19T05:29:26.965Z,20.37
2018-04-19T05:30:07.342Z,20.44
2018-04-19T05:30:47.770Z,20.64
2018-04-19T05:31:28.112Z,20.64
2018-04-19T05:32:08.599Z,20.9
2018-04-19T05:32:49.006Z,21.08
2018-04-19T05:33:29.405Z,21.08
2018-04-19T05:34:10.381Z,21.28
2018-04-19T05:34:50.894Z,21.45
2018-04-19T05:35:31.226Z,21.63
2018-04-19T05:36:11.656Z,21.73
2018-04-19T05:36:52.041Z,21.91
2018-04-19T05:37:32.476Z,21.98
2018-04-19T05:38:12.835Z,22.11
2018-04-19T05:38:53.454Z,22.29
2018-04-19T05:39:33.836Z,22.42
2018-04-19T05:40:14.307Z,22.6
2018-04-19T05:40:54.774Z,22.6
2018-04-19T05:41:35.150Z,22.67
2018-04-19T05:42:15.696Z,22.82
2018-04-19T05:42:56.169Z,22.82
2018-04-19T05:43:36.621Z,22.93
2018-04-19T05:44:17.090Z,23.01
2018-04-19T05:44:57.414Z,23.11
2018-04-19T05:45:37.866Z,23.25
2018-04-19T05:46:18.332Z,23.35
2018-04-19T05:47:03.858Z,23.45
2018-04-19T05:47:44.422Z,23.44
2018-04-19T05:48:24.744Z,23.56
2018-04-19T05:49:05.207Z,23.63
2018-04-19T05:49:45.579Z,23.69
2018-04-19T05:50:26.034Z,23.68
2018-04-19T05:51:07.165Z,23.68
2018-04-19T05:51:47.530Z,23.72
2018-04-19T05:52:27.961Z,23.77
2018-04-19T05:53:08.490Z,23.79
2018-04-19T05:53:48.973Z,23.78
2018-04-19T05:54:29.450Z,23.97
2018-04-19T05:55:09.810Z,23.9
2018-04-19T05:55:50.313Z,24.09
2018-04-19T05:56:30.829Z,24.18
2018-04-19T05:57:11.350Z,24.18
2018-04-19T05:57:51.801Z,24.14
2018-04-19T05:58:32.308Z,24.21
2018-04-19T05:59:12.948Z,24.11
2018-04-19T05:59:53.391Z,24.04
2018-04-19T06:00:33.725Z,24.11
2018-04-19T06:01:14.219Z,24.05
2018-04-19T06:03:12.372Z,23.93
2018-04-19T06:03:53.192Z,23.96
2018-04-19T06:04:33.648Z,23.81
2018-04-19T06:05:14.088Z,23.77
2018-04-19T06:05:54.580Z,23.79
2018-04-19T06:06:34.855Z,23.78
2018-04-19T06:07:15.271Z,23.77
2018-04-19T06:07:55.733Z,23.67
2018-04-19T06:08:36.225Z,23.63
2018-04-19T06:09:17.473Z,23.57
2018-04-19T06:09:57.154Z,23.5
2018-04-19T06:10:37.613Z,23.52
2018-04-19T06:11:18.051Z,23.42
2018-04-19T06:11:58.467Z,23.37
2018-04-19T06:12:38.855Z,23.22
2018-04-19T06:13:22.416Z,23.12
2018-04-19T06:14:03.228Z,23.14
2018-04-19T06:14:43.163Z,23.07
2018-04-19T06:15:23.485Z,23.09
2018-04-19T06:16:03.925Z,23.11
2018-04-19T06:16:44.393Z,23.16
2018-04-19T06:17:24.775Z,23.31
2018-04-19T06:18:05.207Z,23.41
2018-04-19T06:18:45.648Z,23.44
2018-04-19T06:19:27.231Z,23.69
2018-04-19T06:20:07.747Z,23.79
2018-04-19T06:20:48.296Z,23.79
2018-04-19T06:21:28.567Z,24
2018-04-19T06:22:09.034Z,23.94
2018-04-19T06:22:49.443Z,23.99
2018-04-19T06:23:29.835Z,24
2018-04-19T06:24:10.251Z,24.14
2018-04-19T06:24:50.904Z,24.14
2018-04-19T06:25:31.289Z,24.16
2018-04-19T06:26:11.683Z,24.24
2018-04-19T06:26:52.087Z,24.31
2018-04-19T06:27:32.526Z,24.39
2018-04-19T06:28:12.921Z,24.41
2018-04-19T06:28:53.399Z,24.46
2018-04-19T06:29:33.851Z,24.52
2018-04-19T06:31:29.738Z,24.24
2018-04-19T06:32:10.538Z,24.23
2018-04-19T06:32:51.678Z,24.15
2018-04-19T06:33:31.502Z,24.21
2018-04-19T06:34:12.028Z,24.09
2018-04-19T06:34:52.591Z,24
2018-04-19T06:35:34.016Z,23.93
2018-04-19T06:36:14.204Z,23.94
2018-04-19T06:36:54.973Z,23.79
2018-04-19T06:37:35.441Z,23.77
2018-04-19T06:38:15.803Z,23.9
2018-04-19T06:38:56.458Z,23.94
2018-04-19T06:39:36.683Z,24.09
2018-04-19T06:40:18.664Z,24.16
2018-04-19T06:40:59.193Z,24.19
2018-04-19T06:43:03.329Z,24.16
2018-04-19T06:43:43.552Z,24.06
2018-04-19T06:44:23.983Z,23.84
2018-04-19T06:45:04.411Z,23.67
2018-04-19T06:45:44.920Z,23.69
2018-04-19T06:46:25.810Z,23.64
2018-04-19T06:47:06.097Z,23.64
2018-04-19T06:47:46.507Z,23.59
2018-04-19T06:48:28.043Z,23.64
2018-04-19T06:49:08.339Z,23.72
2018-04-19T06:49:48.762Z,23.74
2018-04-19T06:50:29.656Z,23.82
2018-04-19T06:51:10.288Z,23.74
2018-04-19T06:51:50.768Z,23.74
2018-04-19T06:52:31.102Z,23.77
2018-04-19T06:53:11.516Z,23.84
2018-04-19T06:53:51.986Z,23.84
2018-04-19T06:54:32.456Z,23.93
2018-04-19T06:55:13.045Z,24.06
2018-04-19T06:55:53.912Z,24.14
2018-04-19T06:56:34.753Z,24.23
2018-04-19T06:57:14.842Z,24.16
2018-04-19T06:57:55.547Z,24.16
2018-04-19T06:58:36.089Z,24.09
2018-04-19T06:59:16.845Z,23.97
2018-04-19T06:59:57.626Z,23.64
2018-04-19T07:00:37.879Z,23.62
2018-04-19T07:01:18.341Z,23.52
2018-04-19T07:01:58.824Z,23.57
2018-04-19T07:02:39.892Z,23.64
2018-04-19T07:03:20.286Z,23.54
2018-04-19T07:04:00.695Z,23.6
2018-04-19T07:04:41.257Z,23.56
2018-04-19T07:05:21.548Z,23.63
2018-04-19T07:06:01.963Z,23.69
2018-04-19T07:06:44.462Z,23.79
2018-04-19T07:09:05.973Z,24.15
2018-04-19T07:09:46.670Z,24.15
2018-04-19T07:10:27.188Z,24.12
2018-04-19T07:11:08.122Z,24.19
2018-04-19T07:11:48.198Z,24.15
2018-04-19T07:12:28.579Z,23.96
2018-04-19T07:13:09.016Z,23.84
2018-04-19T07:13:49.479Z,23.87
2018-04-19T07:14:30.612Z,23.99
2018-04-19T07:15:10.383Z,23.94
2018-04-19T07:15:50.808Z,23.86
2018-04-19T07:16:31.364Z,23.81
2018-04-19T07:17:11.912Z,23.81
2018-04-19T07:17:52.648Z,23.87
2018-04-19T07:18:33.122Z,23.82
2018-04-19T07:19:13.599Z,23.9
2018-04-19T07:19:54.138Z,23.72
2018-04-19T07:20:34.937Z,23.79
2018-04-19T07:21:14.948Z,23.69
2018-04-19T07:21:55.543Z,23.68
2018-04-19T07:23:43.907Z,23.74
2018-04-19T07:24:24.371Z,23.63
2018-04-19T07:25:04.756Z,23.63
2018-04-19T07:25:45.235Z,23.78
2018-04-19T07:26:25.654Z,23.94
2018-04-19T07:27:06.808Z,24.15
2018-04-19T07:27:46.803Z,24.31
2018-04-19T07:28:27.244Z,24.37
2018-04-19T07:29:07.591Z,24.49
2018-04-19T07:29:48.041Z,24.39
2018-04-19T07:30:28.489Z,24.33
2018-04-19T07:31:09.067Z,24.41
2018-04-19T07:31:49.620Z,24.41
2018-04-19T07:32:29.963Z,24.31
2018-04-19T07:33:10.374Z,24.27
2018-04-19T07:33:50.856Z,24.42
2018-04-19T07:34:31.254Z,24.52
2018-04-19T07:35:12.035Z,24.56
2018-04-19T07:35:52.207Z,24.55
2018-04-19T07:36:33.651Z,24.75
2018-04-19T07:37:13.368Z,24.87
2018-04-19T07:37:55.056Z,25.07
2018-04-19T07:38:35.461Z,25.19
2018-04-19T07:39:15.887Z,25.23
2018-04-19T07:39:56.344Z,25.2
2018-04-19T07:40:36.828Z,25.22
2018-04-19T07:41:17.227Z,25.04
2018-04-19T07:41:57.632Z,25.01
2018-04-19T07:42:38.151Z,24.9
2018-04-19T07:43:18.441Z,24.86
2018-04-19T07:43:59.118Z,24.84
2018-04-19T07:44:39.483Z,24.84
2018-04-19T07:45:19.976Z,24.93
2018-04-19T07:46:00.334Z,25.04
2018-04-19T07:46:40.768Z,25.09
2018-04-19T07:47:21.650Z,25.07
2018-04-19T07:48:02.149Z,25.19
2018-04-19T07:48:42.685Z,25.2
2018-04-19T07:49:23.063Z,25.23
2018-04-19T07:50:03.457Z,25.34
2018-04-19T07:50:43.856Z,25.39
2018-04-19T07:52:23.979Z,25.41
2018-04-19T07:53:04.696Z,25.31
2018-04-19T07:53:45.059Z,25.39
2018-04-19T07:54:25.559Z,25.38
2018-04-19T07:55:05.982Z,25.41
2018-04-19T07:55:47.736Z,25.41
2018-04-19T07:56:28.070Z,25.44
2018-04-19T07:57:08.841Z,25.6
2018-04-19T07:57:49.100Z,25.71
2018-04-19T07:58:29.521Z,25.76
2018-04-19T07:59:13.212Z,25.85
2018-04-19T07:59:53.574Z,25.93
2018-04-19T08:00:34.155Z,25.86
2018-04-19T08:01:14.995Z,25.76
2018-04-19T08:01:55.099Z,25.61
2018-04-19T08:02:35.433Z,25.45
2018-04-19T08:03:16.896Z,25.31
2018-04-19T08:03:57.453Z,25.23
2018-04-19T08:04:37.607Z,25.26
2018-04-19T08:05:18.483Z,25.23
2018-04-19T08:05:58.868Z,25.05
2018-04-19T08:06:41.036Z,25.07
2018-04-19T08:07:22.962Z,25.19
2018-04-19T08:08:03.379Z,25.24
2018-04-19T08:08:43.775Z,25.19
2018-04-19T08:09:24.386Z,25.07
2018-04-19T08:10:04.829Z,25.07
2018-04-19T08:10:45.378Z,25.08
2018-04-19T08:11:25.793Z,25.05
2018-04-19T08:12:08.715Z,25.08
2018-04-19T08:12:49.913Z,25.27
2018-04-19T08:13:30.259Z,25.23
2018-04-19T08:14:13.520Z,25.26
2018-04-19T08:14:53.997Z,25.07
2018-04-19T08:15:34.409Z,25.22
2018-04-19T08:16:18.757Z,25.36
2018-04-19T08:16:59.240Z,25.49
2018-04-19T08:17:41.065Z,25.71
2018-04-19T08:18:20.399Z,25.61
2018-04-19T08:19:00.840Z,25.69
2018-04-19T08:19:41.373Z,25.63
2018-04-19T08:20:23.481Z,25.51
2018-04-19T08:21:05.625Z,25.53
2018-04-19T08:21:46.008Z,25.48
2018-04-19T08:22:27.423Z,25.36
2018-04-19T08:23:09.463Z,25.36
2018-04-19T08:23:49.889Z,25.35
2018-04-19T08:24:35.149Z,25.36
2018-04-19T08:25:15.690Z,25.24
2018-04-19T08:25:56.143Z,25.24
2018-04-19T08:26:39.452Z,25.23
2018-04-19T08:27:23.669Z,25.2
2018-04-19T08:28:04.115Z,25.29
2018-04-19T08:28:44.436Z,25.41
2018-04-19T08:29:26.933Z,25.31
2018-04-19T08:30:09.451Z,25.2
2018-04-19T08:30:50.271Z,25.39
2018-04-19T08:31:30.903Z,25.27
2018-04-19T08:32:11.282Z,25.27
2018-04-19T08:32:51.670Z,25.27
2018-04-19T08:33:34.055Z,25.39
2018-04-19T08:34:18.474Z,25.38
2018-04-19T08:34:59.837Z,25.29
2018-04-19T08:35:40.662Z,25.34
2018-04-19T08:36:20.971Z,25.42
2018-04-19T08:37:01.621Z,25.39
2018-04-19T08:37:42.043Z,25.44
2018-04-19T08:38:22.451Z,25.49
2018-04-19T08:39:04.711Z,25.56
2018-04-19T08:39:45.054Z,25.66
2018-04-19T08:40:25.855Z,25.74
2018-04-19T08:41:06.406Z,25.86
2018-04-19T08:41:46.877Z,26.06
2018-04-19T08:42:27.223Z,26.16
2018-04-19T08:43:07.759Z,26.21
2018-04-19T08:43:48.148Z,26.21
2018-04-19T08:44:28.489Z,26.31
2018-04-19T08:45:08.895Z,26.49
2018-04-19T08:45:49.307Z,26.65
2018-04-19T08:46:29.882Z,26.65
2018-04-19T08:47:10.314Z,26.72
2018-04-19T08:47:50.725Z,26.76
2018-04-19T08:48:31.163Z,26.78
2018-04-19T08:49:11.771Z,26.71
2018-04-19T08:49:52.094Z,26.68
2018-04-19T08:50:32.545Z,26.87
2018-04-19T08:51:15.027Z,26.94
2018-04-19T08:51:57.324Z,27.03
2018-04-19T08:52:37.680Z,27.02
2018-04-19T08:53:19.937Z,27.02
2018-04-19T08:54:01.503Z,27.06
2018-04-19T08:54:41.836Z,27.13
2018-04-19T08:55:22.221Z,27.31
2018-04-19T08:56:02.669Z,27.5
2018-04-19T08:56:43.102Z,27.5
2018-04-19T08:57:23.690Z,27.58
2018-04-19T08:58:04.135Z,27.5
2018-04-19T08:58:44.601Z,27.61
2018-04-19T08:59:25.224Z,27.63
2018-04-19T09:00:05.529Z,27.71
2018-04-19T09:00:45.956Z,27.88
2018-04-19T09:01:26.473Z,27.96
2018-04-19T09:03:14.173Z,28.39
2018-04-19T09:03:54.653Z,28.02
2018-04-19T09:04:35.060Z,28.03
2018-04-19T09:05:15.610Z,27.91
2018-04-19T09:05:55.933Z,27.87
2018-04-19T09:06:36.565Z,27.91
2018-04-19T09:07:17.174Z,27.9
2018-04-19T09:07:57.572Z,27.95
2018-04-19T09:08:38.108Z,27.86
2018-04-19T09:09:18.432Z,27.99
2018-04-19T09:09:58.844Z,28.11
2018-04-19T09:10:39.290Z,28.23
2018-04-19T09:11:19.640Z,28.32
2018-04-19T09:12:00.179Z,28.14
2018-04-19T09:12:40.713Z,28.06
2018-04-19T09:13:21.483Z,28.02
2018-04-19T09:14:01.881Z,27.9
2018-04-19T09:14:42.283Z,27.91
2018-04-19T09:15:22.886Z,27.99
2018-04-19T09:16:03.619Z,28.02
2018-04-19T09:16:44.029Z,28.28
2018-04-19T09:17:24.450Z,28.3
2018-04-19T09:18:04.878Z,28.61
2018-04-19T09:18:46.491Z,28.72
2018-04-19T09:19:26.418Z,28.65
2018-04-19T09:20:07.152Z,28.7
2018-04-19T09:20:47.833Z,28.65
2018-04-19T09:21:28.247Z,28.7
2018-04-19T09:22:08.665Z,28.77
2018-04-19T09:22:49.303Z,28.92
2018-04-19T09:23:30.326Z,28.72
2018-04-19T09:24:10.869Z,28.46
2018-04-19T09:24:51.307Z,28.58
2018-04-19T09:25:31.790Z,28.54
2018-04-19T09:26:12.340Z,28.62
2018-04-19T09:26:52.819Z,28.73
2018-04-19T09:27:33.279Z,28.83
2018-04-19T09:28:13.714Z,28.76
2018-04-19T09:28:54.150Z,28.74
2018-04-19T09:29:34.562Z,28.65
2018-04-19T09:30:15.782Z,28.65
2018-04-19T09:30:55.609Z,28.72
2018-04-19T09:31:36.605Z,28.73
2018-04-19T09:32:17.679Z,28.77
2018-04-19T09:32:57.827Z,28.73
2018-04-19T09:33:38.412Z,28.7